• Join FlightAware (Why Join?)
  • Login
  • US Flag 
02:09AM EDT


 

Airport Tracker/Info


-or-


 

Live Flight TrackerFlight Track Log ✈ N8659B ✈ 14-May-2012 ✈ KCVG - KPHL

Flight Track Log - Related Links

Times and Time Zones

All times are in EDT time to prevent confusion due to time zone crossing. See the N8659B flight status page for this flight to view local times or setup timezone preferences in your user account.

Time Position Orientation Groundspeed Altitude Reporting Facility
EDT Latitude Longitude Course Direction KTS MPH feet Rate Location/Type
08:17PM 39.0667 -84.6500 90° East 181 208 1,400  Level Cincinnati TRACON
08:17PM 39.0667 -84.6333 76° East 160 184 2,200 1,560 Climbing Cincinnati TRACON
08:18PM 39.0833 -84.5500 76° East 205 236 3,900 1,680 Climbing Cincinnati TRACON
08:19PM 39.1000 -84.4667 76° East 263 303 5,800 2,280 Climbing Cincinnati TRACON
08:20PM 39.1167 -84.3833 77° East 270 311 8,500 2,100 Climbing Cincinnati TRACON
08:21PM 39.1378 -84.2639 75° East 303 349 10,700 1,440 Climbing Indianapolis Center
08:22PM 39.1614 -84.1489 79° East 316 364 11,800 1,380 Climbing Indianapolis Center
08:23PM 39.1806 -84.0258 69° East 336 387 13,500 1,620 Climbing Indianapolis Center
08:24PM 39.2167 -83.9056 65° Northeast 347 399 15,100 1,440 Climbing Indianapolis Center
08:25PM 39.2647 -83.7742 64° Northeast 355 409 16,400 1,260 Climbing Indianapolis Center
08:26PM 39.3108 -83.6536 63° Northeast 360 414 17,700 1,200 Climbing Indianapolis Center
08:27PM 39.3589 -83.5303 65° Northeast 368 423 18,900 1,080 Climbing Indianapolis Center
08:28PM 39.4047 -83.4011 63° Northeast 379 436 19,900 900 Climbing Indianapolis Center
08:29PM 39.4544 -83.2719 65° Northeast 384 442 20,800 900 Climbing Indianapolis Center
08:30PM 39.5019 -83.1400 64° Northeast 390 449 21,700 780 Climbing Indianapolis Center
08:31PM 39.5514 -83.0078 64° Northeast 403 464 22,400 720 Climbing Indianapolis Center
08:32PM 39.6028 -82.8725 82° East 408 470 23,200 660 Climbing Indianapolis Center
08:33PM 39.6186 -82.7161 84° East 414 476 23,800 660 Climbing Indianapolis Center
08:34PM 39.6300 -82.5650 84° East 426 490 24,600 660 Climbing Indianapolis Center
08:35PM 39.6431 -82.4083 84° East 426 490 25,200 480 Climbing Indianapolis Center
08:36PM 39.6561 -82.2517 74° East 431 496 25,600 480 Climbing Indianapolis Center
08:37PM 39.6897 -82.1000 76° East 439 505 26,200 360 Climbing Indianapolis Center
08:40PM 39.7719 -81.6797 75° East 453 521 27,000 180 Climbing Cleveland Center
08:41PM 39.8069 -81.5044 74° East 448 516 27,000  Level Cleveland Center
08:42PM 39.8414 -81.3508 76° East 461 531 27,000  Level Cleveland Center
08:43PM 39.8739 -81.1864 75° East 467 537 27,000  Level Cleveland Center
08:44PM 39.9078 -81.0214 75° East 467 537 27,000  Level Cleveland Center
08:45PM 39.9417 -80.8539 76° East 472 543 27,000  Level Cleveland Center
08:46PM 39.9733 -80.6861 75° East 472 543 27,000  Level Cleveland Center
08:47PM 40.0067 -80.5181 76° East 472 543 27,000  Level Cleveland Center
08:48PM 40.0397 -80.3472 76° East 472 543 27,000  Level Cleveland Center
08:49PM 40.0728 -80.1789 77° East 472 543 27,000  Level Cleveland Center
08:50PM 40.0950 -80.0483 75° East 472 543 27,000  Level Cleveland Center
08:51PM 40.1336 -79.8608 71° East 457 526 27,000  Level Cleveland Center
08:52PM 40.1722 -79.7108 61° Northeast 442 509 27,000  Level Cleveland Center
08:53PM 40.2294 -79.5742 62° Northeast 432 497 27,000  Level Cleveland Center
08:54PM 40.2864 -79.4319 62° Northeast 432 497 27,000  Level Cleveland Center
08:55PM 40.3453 -79.2864 83° East 432 497 27,000  Level Cleveland Center
08:56PM 40.3603 -79.1308 94° East 421 484 27,000  Level Cleveland Center
08:57PM 40.3514 -78.9511 94° East 433 498 27,000  Level Cleveland Center
08:58PM 40.3428 -78.7933 92° East 438 504 27,000  Level Cleveland Center
08:59PM 40.3381 -78.6300 92° East 438 504 27,000  Level Cleveland Center
09:00PM 40.3339 -78.5022 94° East 438 504 27,000  Level Cleveland Center
09:01PM 40.3239 -78.3119 93° East 438 504 27,000 -660 Level Cleveland Center
09:03PM 40.3106 -77.9764 90° East 461 531 25,000 -660 Descending New York Center
09:04PM 40.3097 -77.8158 90° East 461 531 25,000 -360 Level New York Center
09:05PM 40.3100 -77.6714 91° East 455 524 24,300 -900 Descending New York Center
09:06PM 40.3064 -77.4778 91° East 443 510 23,100 -1,320 Descending New York Center
09:07PM 40.3050 -77.3197 92° East 443 510 21,800 -1,500 Descending New York Center
09:08PM 40.2994 -77.1531 96° East 431 496 20,200 -900 Descending New York Center
09:09PM 40.2883 -77.0078 107° East 414 476 20,000 -120 Descending New York Center
09:10PM 40.2542 -76.8661 108° East 404 465 20,000  Level New York Center
09:11PM 40.2194 -76.7269 101° East 404 465 20,000 -540 Level New York Center
09:12PM 40.1992 -76.5947 99° East 411 473 19,000 -1,680 Descending New York Center
09:13PM 40.1794 -76.4408 102° East 392 451 16,700 -2,160 Descending New York Center
09:14PM 40.1656 -76.3567 100° East 383 441 15,500 -2,040 Descending FAA TRACON SMA TRACON (SMA)
09:15PM 40.1533 -76.2647 100° East 378 435 14,100 -1,980 Descending FAA TRACON SMA TRACON (SMA)
09:15PM 40.1408 -76.1744 101° East 362 417 12,900 -1,740 Descending FAA TRACON SMA TRACON (SMA)
09:16PM 40.1294 -76.0964 100° East 356 410 11,800 -1,740 Descending FAA TRACON SMA TRACON (SMA)
09:17PM 40.1181 -76.0097 113° Southeast 350 403 10,600 -1,200 Descending FAA TRACON SMA TRACON (SMA)
09:17PM 40.0958 -75.9400 136° Southeast 281 323 10,200 -1,140 Descending FAA TRACON SMA TRACON (SMA)
09:18PM 40.0606 -75.8953 135° Southeast 277 319 9,100 -1,740 Descending FAA TRACON SMA TRACON (SMA)
09:19PM 40.0225 -75.8453 135° Southeast 283 326 7,900 -1,620 Descending FAA TRACON SMA TRACON (SMA)
09:19PM 39.9844 -75.7956 135° Southeast 280 322 7,000 -1,140 Descending FAA TRACON SMA TRACON (SMA)
09:20PM 39.9519 -75.7533 135° Southeast 270 311 6,400 -900 Descending FAA TRACON SMA TRACON (SMA)
09:21PM 39.9189 -75.7100 134° Southeast 237 273 5,800 -1,020 Descending FAA TRACON SMA TRACON (SMA)
09:21PM 39.8900 -75.6717 136° Southeast 218 251 5,100 -1,140 Descending FAA TRACON SMA TRACON (SMA)
09:22PM 39.8633 -75.6381 135° Southeast 215 247 4,300 -840 Descending FAA TRACON SMA TRACON (SMA)
09:23PM 39.8347 -75.6011 129° Southeast 212 244 4,000 -180 Descending FAA TRACON SMA TRACON (SMA)
09:23PM 39.8094 -75.5606 84° East 217 250 4,100 -180 Climbing FAA TRACON SMA TRACON (SMA)
09:24PM 39.8136 -75.5108 77° East 228 262 3,800 -900 Descending FAA TRACON SMA TRACON (SMA)
09:25PM 39.8233 -75.4553 73° East 224 258 2,900 -1,200 Descending FAA TRACON SMA TRACON (SMA)
09:25PM 39.8342 -75.4083 76° East 181 208 2,200 -900 Descending FAA TRACON SMA TRACON (SMA)
09:26PM 39.8406 -75.3756 75° East 148 170 1,700 -840 Descending FAA TRACON SMA TRACON (SMA)
09:27PM 39.8478 -75.3400 75° East 145 167 1,100 -840 Descending FAA TRACON SMA TRACON (SMA)
09:27PM 39.8547 -75.3053 75° East 143 165 600 -720 Descending FAA TRACON SMA TRACON (SMA)
09:28PM 39.8600 -75.2794 360° North 138 159 200 -300 Descending FAA TRACON SMA TRACON (SMA)
09:29PM 39.8600 -75.2794 360° North 138 159 200  Level FAA TRACON SMA TRACON (SMA)